Ikan Bagat — 3EYX8 — position and weather

sailwx.info

Track history (hours):
 
Tides and Currents Weather Stations Pressure Air Temp Water Temp Dewpoint Dewpoint Depression Visibility Wind Speed Wind Dir Waves Ship Positions

Ikan Bagat

Last reported at 2014-Jul-22 11:16 UTC. Time now 2014-Jul-31 13:39 UTC.
Position N 22°21' E 114°03'.
Warning: this ship's position is 9 days out of date.

Length 229 m; draft 5.6 m.

Type: Cargo ship. MMSI: 354375000.

Date/timePositionNaut miles runAvg speedWind from/ knotsBaromVisibWave heightAir tempDewpointWater temp
2014-Jul-22 11:16N 22°21' E 114°03'7 8.8
2014-Jul-22 10:28N 22°22' E 113°55'1 0.6
2014-Jul-22 09:30N 22°22' E 113°55'0 0.0
2014-Jul-22 08:30N 22°22' E 113°55'0 0.0
2014-Jul-22 07:30N 22°22' E 113°55'0 0.0
2014-Jul-22 06:24N 22°22' E 113°55'0 0.0
2014-Jul-22 05:30N 22°22' E 113°55'0 0.0
2014-Jul-22 04:30N 22°22' E 113°55'0 0.0
2014-Jul-22 03:30N 22°22' E 113°55'0 0.0
2014-Jul-22 02:30N 22°22' E 113°55'0 0.0
2014-Jul-22 01:24N 22°22' E 113°55'0 0.0
2014-Jul-22 00:30N 22°22' E 113°55'0 0.0
2014-Jul-21 10:09N 22°22' E 113°55'0 0.0
2014-Jul-21 09:30N 22°22' E 113°55'0 0.0
2014-Jul-21 08:30N 22°22' E 113°55'0 0.0
2014-Jul-21 07:30N 22°22' E 113°55'0 0.0
2014-Jul-21 06:30N 22°22' E 113°55'0 0.0
2014-Jul-21 05:30N 22°22' E 113°55'0 0.0
2014-Jul-21 04:18N 22°22' E 113°55'0 0.0
2014-Jul-21 03:30N 22°22' E 113°55'0 0.0
2014-Jul-21 02:30N 22°22' E 113°55'0 0.0
2014-Jul-21 01:30N 22°22' E 113°55'0 0.0
2014-Jul-21 00:30N 22°22' E 113°55'0 0.0
2014-Jul-20 14:12N 22°22' E 113°55'0 0.0
2014-Jul-20 07:21N 22°22' E 113°55'0 0.0
2014-Jul-20 06:33N 22°22' E 113°55'0 0.0
2014-Jul-20 05:27N 22°22' E 113°55'0 0.0
2014-Jul-20 04:27N 22°22' E 113°55'0 0.0
2014-Jul-20 03:27N 22°22' E 113°55'0 0.0
2014-Jul-20 00:33N 22°22' E 113°55'0 0.0
2014-Jul-19 23:09N 22°22' E 113°55'0 0.0
2014-Jul-19 22:33N 22°22' E 113°55'0 0.0
2014-Jul-19 21:33N 22°22' E 113°55'0 0.0
2014-Jul-19 20:33N 22°22' E 113°55'0 0.0
2014-Jul-19 19:33N 22°22' E 113°55'0 0.0
2014-Jul-19 17:33N 22°22' E 113°55'0 0.0
2014-Jul-19 16:33N 22°22' E 113°55'0 0.0
2014-Jul-19 15:27N 22°22' E 113°55'0 0.0
2014-Jul-19 14:21N 22°22' E 113°55'0 0.0
2014-Jul-19 13:15N 22°22' E 113°55'0 0.0
2014-Jul-19 12:33N 22°22' E 113°55'0 0.0
2014-Jul-19 11:33N 22°22' E 113°55'0 0.0
2014-Jul-19 10:09N 22°22' E 113°55'0 0.0
2014-Jul-19 09:33N 22°22' E 113°55'0 0.0
2014-Jul-19 04:27N 22°22' E 113°55'0 0.0
2014-Jul-19 03:15N 22°22' E 113°55'10 5.5
2014-Jul-19 01:28N 22°20' E 114°05'2 0.0
2014-Jul-17 12:19N 22°18' E 114°06'10 8.6
2014-Jul-17 11:06N 22°22' E 113°55'0 0.4
2014-Jul-17 10:10N 22°22' E 113°55'0 0.0
2014-Jul-17 09:31N 22°22' E 113°55'0 0.0
2014-Jul-17 08:31N 22°22' E 113°55'0 0.0
2014-Jul-17 07:19N 22°22' E 113°55'0 0.0
2014-Jul-17 06:31N 22°22' E 113°55'0 0.0
2014-Jul-17 05:31N 22°22' E 113°55'0 0.0
2014-Jul-17 04:31N 22°22' E 113°55'0 0.0
2014-Jul-17 03:31N 22°22' E 113°55'0 0.0
2014-Jul-17 02:19N 22°22' E 113°55'0 0.0
2014-Jul-17 01:31N 22°22' E 113°55'0 0.0
2014-Jul-17 00:31N 22°22' E 113°55'0 0.0
2014-Jul-16 21:22N 22°22' E 113°55'0 0.0
2014-Jul-16 20:04N 22°22' E 113°55'0 0.0
2014-Jul-16 19:28N 22°22' E 113°55'0 0.0
2014-Jul-16 17:22N 22°22' E 113°55'0 0.0
2014-Jul-16 16:10N 22°22' E 113°55'0 0.0
2014-Jul-16 15:10N 22°22' E 113°55'0 0.0
2014-Jul-16 14:28N 22°22' E 113°55'0 0.0
2014-Jul-16 13:28N 22°22' E 113°55'0 0.0
2014-Jul-16 12:28N 22°22' E 113°55'0 0.0
2014-Jul-16 11:16N 22°22' E 113°55'0 0.0
2014-Jul-16 10:22N 22°22' E 113°55'0 0.0
2014-Jul-16 09:31N 22°22' E 113°55'0 0.0
2014-Jul-16 08:31N 22°22' E 113°55'0 0.0
2014-Jul-16 07:31N 22°22' E 113°55'0 0.0
2014-Jul-16 06:31N 22°22' E 113°55'0 0.0
2014-Jul-16 05:25N 22°22' E 113°55'0 0.0
2014-Jul-16 04:31N 22°22' E 113°55'0 0.0
2014-Jul-16 03:31N 22°22' E 113°55'0 0.0
2014-Jul-16 02:31N 22°22' E 113°55'0 0.0
2014-Jul-16 01:33N 22°22' E 113°55'2 2.0
2014-Jul-16 00:26N 22°21' E 113°57'8 7.7
2014-Jul-15 23:22N 22°19' E 114°05'10 0.7
2014-Jul-15 10:27N 22°10' E 114°09'3 0.6
2014-Jul-15 06:25N 22°09' E 114°12'  
Track history (hours):
 
Tides and Currents Weather Stations Pressure Air Temp Water Temp Dewpoint Dewpoint Depression Visibility Wind Speed Wind Dir Waves Ship Positions

Ikan Bagat

Last reported at 2014-Jul-22 11:16 UTC. Time now 2014-Jul-31 13:39 UTC.
Position N 22°21' E 114°03'.
Warning: this ship's position is 9 days out of date.

Length 229 m; draft 5.6 m.

Type: Cargo ship. MMSI: 354375000.

Date/timePositionNaut miles runAvg speedWind from/ knotsBaromVisibWave heightAir tempDewpointWater temp
2014-Jul-22 11:16N 22°21' E 114°03'7 8.8
2014-Jul-22 10:28N 22°22' E 113°55'1 0.6
2014-Jul-22 09:30N 22°22' E 113°55'0 0.0
2014-Jul-22 08:30N 22°22' E 113°55'0 0.0
2014-Jul-22 07:30N 22°22' E 113°55'0 0.0
2014-Jul-22 06:24N 22°22' E 113°55'0 0.0
2014-Jul-22 05:30N 22°22' E 113°55'0 0.0
2014-Jul-22 04:30N 22°22' E 113°55'0 0.0
2014-Jul-22 03:30N 22°22' E 113°55'0 0.0
2014-Jul-22 02:30N 22°22' E 113°55'0 0.0
2014-Jul-22 01:24N 22°22' E 113°55'0 0.0
2014-Jul-22 00:30N 22°22' E 113°55'0 0.0
2014-Jul-21 10:09N 22°22' E 113°55'0 0.0
2014-Jul-21 09:30N 22°22' E 113°55'0 0.0
2014-Jul-21 08:30N 22°22' E 113°55'0 0.0
2014-Jul-21 07:30N 22°22' E 113°55'0 0.0
2014-Jul-21 06:30N 22°22' E 113°55'0 0.0
2014-Jul-21 05:30N 22°22' E 113°55'0 0.0
2014-Jul-21 04:18N 22°22' E 113°55'0 0.0
2014-Jul-21 03:30N 22°22' E 113°55'0 0.0
2014-Jul-21 02:30N 22°22' E 113°55'0 0.0
2014-Jul-21 01:30N 22°22' E 113°55'0 0.0
2014-Jul-21 00:30N 22°22' E 113°55'0 0.0
2014-Jul-20 14:12N 22°22' E 113°55'0 0.0
2014-Jul-20 07:21N 22°22' E 113°55'0 0.0
2014-Jul-20 06:33N 22°22' E 113°55'0 0.0
2014-Jul-20 05:27N 22°22' E 113°55'0 0.0
2014-Jul-20 04:27N 22°22' E 113°55'0 0.0
2014-Jul-20 03:27N 22°22' E 113°55'0 0.0
2014-Jul-20 00:33N 22°22' E 113°55'0 0.0
2014-Jul-19 23:09N 22°22' E 113°55'0 0.0
2014-Jul-19 22:33N 22°22' E 113°55'0 0.0
2014-Jul-19 21:33N 22°22' E 113°55'0 0.0
2014-Jul-19 20:33N 22°22' E 113°55'0 0.0
2014-Jul-19 19:33N 22°22' E 113°55'0 0.0
2014-Jul-19 17:33N 22°22' E 113°55'0 0.0
2014-Jul-19 16:33N 22°22' E 113°55'0 0.0
2014-Jul-19 15:27N 22°22' E 113°55'0 0.0
2014-Jul-19 14:21N 22°22' E 113°55'0 0.0
2014-Jul-19 13:15N 22°22' E 113°55'0 0.0
2014-Jul-19 12:33N 22°22' E 113°55'0 0.0
2014-Jul-19 11:33N 22°22' E 113°55'0 0.0
2014-Jul-19 10:09N 22°22' E 113°55'0 0.0
2014-Jul-19 09:33N 22°22' E 113°55'0 0.0
2014-Jul-19 04:27N 22°22' E 113°55'0 0.0
2014-Jul-19 03:15N 22°22' E 113°55'10 5.5
2014-Jul-19 01:28N 22°20' E 114°05'2 0.0
2014-Jul-17 12:19N 22°18' E 114°06'10 8.6
2014-Jul-17 11:06N 22°22' E 113°55'0 0.4
2014-Jul-17 10:10N 22°22' E 113°55'0 0.0
2014-Jul-17 09:31N 22°22' E 113°55'0 0.0
2014-Jul-17 08:31N 22°22' E 113°55'0 0.0
2014-Jul-17 07:19N 22°22' E 113°55'0 0.0
2014-Jul-17 06:31N 22°22' E 113°55'0 0.0
2014-Jul-17 05:31N 22°22' E 113°55'0 0.0
2014-Jul-17 04:31N 22°22' E 113°55'0 0.0
2014-Jul-17 03:31N 22°22' E 113°55'0 0.0
2014-Jul-17 02:19N 22°22' E 113°55'0 0.0
2014-Jul-17 01:31N 22°22' E 113°55'0 0.0
2014-Jul-17 00:31N 22°22' E 113°55'0 0.0
2014-Jul-16 21:22N 22°22' E 113°55'0 0.0
2014-Jul-16 20:04N 22°22' E 113°55'0 0.0
2014-Jul-16 19:28N 22°22' E 113°55'0 0.0
2014-Jul-16 17:22N 22°22' E 113°55'0 0.0
2014-Jul-16 16:10N 22°22' E 113°55'0 0.0
2014-Jul-16 15:10N 22°22' E 113°55'0 0.0
2014-Jul-16 14:28N 22°22' E 113°55'0 0.0
2014-Jul-16 13:28N 22°22' E 113°55'0 0.0
2014-Jul-16 12:28N 22°22' E 113°55'0 0.0
2014-Jul-16 11:16N 22°22' E 113°55'0 0.0
2014-Jul-16 10:22N 22°22' E 113°55'0 0.0
2014-Jul-16 09:31N 22°22' E 113°55'0 0.0
2014-Jul-16 08:31N 22°22' E 113°55'0 0.0
2014-Jul-16 07:31N 22°22' E 113°55'0 0.0
2014-Jul-16 06:31N 22°22' E 113°55'0 0.0
2014-Jul-16 05:25N 22°22' E 113°55'0 0.0
2014-Jul-16 04:31N 22°22' E 113°55'0 0.0
2014-Jul-16 03:31N 22°22' E 113°55'0 0.0
2014-Jul-16 02:31N 22°22' E 113°55'0 0.0
2014-Jul-16 01:33N 22°22' E 113°55'2 2.0
2014-Jul-16 00:26N 22°21' E 113°57'8 7.7
2014-Jul-15 23:22N 22°19' E 114°05'10 0.7
2014-Jul-15 10:27N 22°10' E 114°09'3 0.6
2014-Jul-15 06:25N 22°09' E 114°12'  

Dump ship's entire track history